createdAt,value
2017-09-14T00:00:53.349Z,85.1
2017-09-14T00:01:52.391Z,85
2017-09-14T00:02:51.692Z,85.1
2017-09-14T00:03:51.120Z,84.8
2017-09-14T00:04:50.038Z,85.1
2017-09-14T00:05:49.721Z,84.9
2017-09-14T00:06:48.637Z,85
2017-09-14T00:07:19.241Z,85
2017-09-14T00:07:49.386Z,84.9
2017-09-14T00:08:20.123Z,84.9
2017-09-14T00:09:46.216Z,84.8
2017-09-14T00:10:45.646Z,84.9
2017-09-14T00:11:45.192Z,84.5
2017-09-14T00:12:44.117Z,84.9
2017-09-14T00:13:43.295Z,84.9
2017-09-14T00:14:42.591Z,84.6
2017-09-14T00:15:42.015Z,85.2
2017-09-14T00:16:40.933Z,84.8
2017-09-14T00:17:40.226Z,84.7
2017-09-14T00:18:39.651Z,84.8
2017-09-14T00:20:37.829Z,84.9
2017-09-14T00:21:37.257Z,84.8
2017-09-14T00:22:36.670Z,84.6
2017-09-14T00:23:35.711Z,84.6
2017-09-14T00:24:34.875Z,84.5
2017-09-14T00:25:34.415Z,84.8
2017-09-14T00:26:33.337Z,84.9
2017-09-14T00:27:32.881Z,85.1
2017-09-14T00:28:31.791Z,85
2017-09-14T00:29:30.958Z,85
2017-09-14T00:30:30.754Z,85.6
2017-09-14T00:31:29.919Z,86.1
2017-09-14T00:32:28.834Z,86.6
2017-09-14T00:33:28.133Z,86.9
2017-09-14T00:34:27.308Z,87.2
2017-09-14T00:35:26.473Z,86.9
2017-09-14T00:36:25.894Z,87.6
2017-09-14T00:37:25.061Z,87.8
2017-09-14T00:38:24.487Z,88.8
2017-09-14T00:39:23.773Z,88.5
2017-09-14T00:39:54.127Z,88.5
2017-09-14T00:41:22.357Z,89.7
2017-09-14T00:42:21.271Z,90
2017-09-14T00:43:20.817Z,90.3
2017-09-14T00:44:19.607Z,90.2
2017-09-14T00:45:18.903Z,90.8
2017-09-14T00:46:18.201Z,90.7
2017-09-14T00:47:17.534Z,90.7
2017-09-14T00:48:16.705Z,91.5
2017-09-14T00:49:15.868Z,91.2
2017-09-14T00:50:14.912Z,91.4
2017-09-14T00:51:14.332Z,91.7
2017-09-14T00:52:13.877Z,91.6
2017-09-14T00:53:12.929Z,92
2017-09-14T00:54:12.220Z,91.9
2017-09-14T00:55:11.514Z,92.1
2017-09-14T00:57:09.944Z,92.5
2017-09-14T00:58:09.116Z,92.6
2017-09-14T00:59:08.163Z,92.5
2017-09-14T01:00:07.712Z,92.7
2017-09-14T01:01:06.506Z,92.8
2017-09-14T01:02:05.919Z,92.7
2017-09-14T01:03:05.210Z,93.3
2017-09-14T01:04:04.503Z,92.9
2017-09-14T01:05:03.798Z,93
2017-09-14T01:06:03.092Z,93.2
2017-09-14T01:07:02.128Z,93.3
2017-09-14T01:08:01.550Z,93.2
2017-09-14T01:09:00.466Z,92.9
2017-09-14T01:09:59.881Z,93.1
2017-09-14T01:10:58.668Z,93.1
2017-09-14T01:11:58.084Z,93.2
2017-09-14T01:12:57.499Z,93.5
2017-09-14T01:13:56.791Z,93.4
2017-09-14T01:14:55.956Z,93.5
2017-09-14T01:15:54.998Z,93.2
2017-09-14T01:17:53.685Z,93.1
2017-09-14T01:18:52.472Z,93
2017-09-14T01:19:51.903Z,93.4
2017-09-14T01:20:51.073Z,93.3
2017-09-14T01:21:50.369Z,93.3
2017-09-14T01:22:49.558Z,93.5
2017-09-14T01:23:48.720Z,93.6
2017-09-14T01:24:48.008Z,93.5
2017-09-14T01:25:47.435Z,93.8
2017-09-14T01:26:46.482Z,93.7
2017-09-14T01:28:45.039Z,93.4
2017-09-14T01:29:44.330Z,93.6
2017-09-14T01:30:43.247Z,93.8
2017-09-14T01:31:42.541Z,94
2017-09-14T01:32:41.954Z,94.1
2017-09-14T01:33:40.998Z,93.8
2017-09-14T01:34:40.168Z,93.9
2017-09-14T01:35:39.584Z,94
2017-09-14T01:37:38.011Z,94
2017-09-14T01:38:36.938Z,93.8
2017-09-14T01:39:36.353Z,94
2017-09-14T01:40:35.785Z,93.8
2017-09-14T01:41:34.571Z,93.8
2017-09-14T01:42:33.996Z,94
2017-09-14T01:44:32.556Z,93.6
2017-09-14T01:45:31.470Z,93.6
2017-09-14T01:46:31.030Z,93.8
2017-09-14T01:47:29.818Z,93.6
2017-09-14T01:48:28.990Z,93.6
2017-09-14T01:50:27.795Z,93.4
2017-09-14T01:51:26.965Z,93.2
2017-09-14T01:52:26.259Z,93.4
2017-09-14T01:53:25.558Z,93.3
2017-09-14T01:54:24.600Z,93.3
2017-09-14T01:55:23.897Z,93.2
2017-09-14T01:56:22.811Z,93.2
2017-09-14T01:57:22.105Z,93.2
2017-09-14T01:58:21.526Z,93.3
2017-09-14T01:59:20.689Z,93.3
2017-09-14T02:00:19.977Z,93.3
2017-09-14T02:01:19.397Z,93.2
2017-09-14T02:02:18.321Z,93.4
2017-09-14T02:03:17.236Z,93.2
2017-09-14T02:04:17.028Z,93.4
2017-09-14T02:05:15.938Z,93.4
2017-09-14T02:06:15.004Z,93.6
2017-09-14T02:07:14.439Z,93.2
2017-09-14T02:08:13.731Z,93.3
2017-09-14T02:09:12.523Z,93
2017-09-14T02:10:12.193Z,92.9
2017-09-14T02:11:11.361Z,92.9
2017-09-14T02:12:10.526Z,93.1
2017-09-14T02:13:09.819Z,93.3
2017-09-14T02:16:07.134Z,93.2
2017-09-14T02:17:06.552Z,93.2
2017-09-14T02:18:05.719Z,93.3
2017-09-14T02:19:05.144Z,93.2
2017-09-14T02:20:03.937Z,93.2
2017-09-14T02:21:03.356Z,93.2
2017-09-14T02:22:02.779Z,93.1
2017-09-14T02:23:01.698Z,93.2
2017-09-14T02:24:00.863Z,92.7
2017-09-14T02:25:00.423Z,93
2017-09-14T02:25:59.212Z,93.1
2017-09-14T02:26:58.760Z,93.1
2017-09-14T02:27:57.678Z,92.9
2017-09-14T02:28:57.226Z,93.1
2017-09-14T02:29:56.397Z,92.8
2017-09-14T02:30:55.690Z,92.7
2017-09-14T02:31:54.489Z,92.9
2017-09-14T02:32:53.903Z,92.7
2017-09-14T02:33:53.466Z,92
2017-09-14T02:34:52.514Z,92.2
2017-09-14T02:35:51.431Z,92.3
2017-09-14T02:36:50.756Z,92.4
2017-09-14T02:37:50.183Z,92.5
2017-09-14T02:38:49.102Z,92.5
2017-09-14T02:39:48.142Z,92.3
2017-09-14T02:40:47.561Z,92.4
2017-09-14T02:41:46.990Z,92.4
2017-09-14T02:42:46.032Z,92.4
2017-09-14T02:43:45.328Z,92.7
2017-09-14T02:44:44.744Z,92.5
2017-09-14T02:45:43.780Z,92.5
2017-09-14T02:46:43.075Z,92.9
2017-09-14T02:47:42.009Z,92.7
2017-09-14T02:48:41.440Z,92.8
2017-09-14T02:49:40.614Z,92.8
2017-09-14T02:50:39.912Z,92.9
2017-09-14T02:51:39.211Z,92.8
2017-09-14T02:52:38.133Z,92.9
2017-09-14T02:53:37.433Z,92.8
2017-09-14T02:54:36.607Z,92.7
2017-09-14T02:55:35.910Z,92.9
2017-09-14T02:56:34.829Z,93.2
2017-09-14T02:57:34.249Z,92.9
2017-09-14T02:58:33.292Z,92.9
2017-09-14T02:59:32.848Z,93.1
2017-09-14T03:00:32.026Z,93.1
2017-09-14T03:01:30.948Z,93.3
2017-09-14T03:02:30.376Z,93.5
2017-09-14T03:03:29.547Z,93.5
2017-09-14T03:04:28.977Z,93.4
2017-09-14T03:05:28.151Z,93.4
2017-09-14T03:06:27.071Z,93.3
2017-09-14T03:07:26.507Z,93.3
2017-09-14T03:08:25.300Z,92.9
2017-09-14T03:09:24.721Z,92.9
2017-09-14T03:10:24.014Z,93
2017-09-14T03:11:23.313Z,92.9
2017-09-14T03:12:22.109Z,92.8
2017-09-14T03:13:21.785Z,93
2017-09-14T03:14:20.705Z,92.9
2017-09-14T03:15:19.878Z,92.8
2017-09-14T03:16:19.551Z,92.9
2017-09-14T03:18:17.613Z,92.9
2017-09-14T03:19:16.792Z,92.9
2017-09-14T03:20:15.981Z,92.8
2017-09-14T03:21:15.273Z,92.2
2017-09-14T03:22:14.325Z,92.2
2017-09-14T03:23:13.623Z,92.4
2017-09-14T03:24:13.042Z,92.5
2017-09-14T03:25:12.086Z,91.9
2017-09-14T03:26:11.516Z,92
2017-09-14T03:27:10.438Z,92.3
2017-09-14T03:28:09.870Z,92
2017-09-14T03:30:08.179Z,92.4
2017-09-14T03:31:07.601Z,92.4
2017-09-14T03:32:06.541Z,92.5
2017-09-14T03:33:05.965Z,92.5
2017-09-14T03:34:05.136Z,92.4
2017-09-14T03:35:04.306Z,92.7
2017-09-14T03:36:03.477Z,92.7
2017-09-14T03:37:02.650Z,92.7
2017-09-14T03:38:01.696Z,92.9
2017-09-14T03:39:01.244Z,92.9
2017-09-14T03:40:00.293Z,92.9
2017-09-14T03:40:59.598Z,93
2017-09-14T03:41:58.516Z,93.1
2017-09-14T03:42:57.816Z,93.1
2017-09-14T03:43:57.119Z,93.2
2017-09-14T03:44:56.670Z,93.1
2017-09-14T03:45:55.602Z,93.1
2017-09-14T03:46:54.648Z,93.2
2017-09-14T03:47:53.817Z,93.4
2017-09-14T03:48:24.298Z,93.4
2017-09-14T03:48:54.534Z,93.3
2017-09-14T03:49:52.320Z,93.2
2017-09-14T03:50:51.875Z,92.9
2017-09-14T03:51:50.542Z,92.9
2017-09-14T03:52:49.846Z,93
2017-09-14T03:53:49.393Z,92.8
2017-09-14T03:54:48.734Z,93.3
2017-09-14T03:55:47.650Z,93.6
2017-09-14T03:56:46.942Z,93.6
2017-09-14T03:57:45.991Z,93.8
2017-09-14T03:58:45.174Z,93.8
2017-09-14T03:59:44.228Z,93.6
2017-09-14T04:00:43.523Z,93.7
2017-09-14T04:01:42.950Z,93.6
2017-09-14T04:02:42.118Z,93.7
2017-09-14T04:03:41.413Z,93.5
2017-09-14T04:04:40.707Z,93.8
2017-09-14T04:05:39.880Z,93.7
2017-09-14T04:06:38.801Z,93.7
2017-09-14T04:07:38.224Z,93.5
2017-09-14T04:08:37.521Z,93.3
2017-09-14T04:09:36.571Z,93.5
2017-09-14T04:10:35.624Z,93.4
2017-09-14T04:11:34.927Z,93.6
2017-09-14T04:12:34.102Z,93.4
2017-09-14T04:13:33.529Z,93.4
2017-09-14T04:14:32.827Z,92.4
2017-09-14T04:15:31.624Z,92.8
2017-09-14T04:16:30.923Z,92.3
2017-09-14T04:17:29.984Z,92.1
2017-09-14T04:18:29.666Z,91.5
2017-09-14T04:19:28.714Z,91.6
2017-09-14T04:20:27.758Z,91.9
2017-09-14T04:21:27.435Z,91.7
2017-09-14T04:22:26.493Z,92
2017-09-14T04:23:25.541Z,91.1
2017-09-14T04:24:24.466Z,91.3
2017-09-14T04:25:23.909Z,91.5
2017-09-14T04:26:23.469Z,91.7
2017-09-14T04:27:22.276Z,91.3
2017-09-14T04:28:21.706Z,91.3
2017-09-14T04:28:51.948Z,91.3
2017-09-14T04:29:22.441Z,90.7
2017-09-14T04:30:20.227Z,90.9
2017-09-14T04:31:19.272Z,90.6
2017-09-14T04:32:18.571Z,90.7
2017-09-14T04:33:17.759Z,90.3
2017-09-14T04:34:16.713Z,90.9
2017-09-14T04:35:16.263Z,91
2017-09-14T04:36:15.441Z,91.2
2017-09-14T04:37:14.241Z,91.1
2017-09-14T04:38:13.543Z,91.2
2017-09-14T04:39:12.968Z,91.2
2017-09-14T04:40:12.263Z,91.5
2017-09-14T04:41:11.434Z,91.3
2017-09-14T04:42:10.730Z,91.4
2017-09-14T04:43:09.528Z,91.4
2017-09-14T04:44:08.969Z,91.6
2017-09-14T04:45:08.518Z,91.5
2017-09-14T04:46:07.440Z,91.4
2017-09-14T04:47:06.741Z,91.8
2017-09-14T04:48:05.690Z,91.4
2017-09-14T04:48:35.796Z,91.4
2017-09-14T04:49:06.406Z,91.7
2017-09-14T04:49:36.892Z,91.7
2017-09-14T04:50:07.137Z,92
2017-09-14T04:51:03.163Z,90.9
2017-09-14T04:52:02.589Z,91.2
2017-09-14T04:53:01.636Z,91.2
2017-09-14T04:54:01.316Z,91.4
2017-09-14T04:55:00.616Z,91.1
2017-09-14T04:55:59.532Z,90.8
2017-09-14T04:56:58.577Z,90.4
2017-09-14T04:57:58.009Z,91
2017-09-14T04:58:57.437Z,90.9
2017-09-14T04:59:56.475Z,91
2017-09-14T05:00:55.402Z,91.1
2017-09-14T05:01:54.832Z,90.8
2017-09-14T05:02:53.758Z,90.2
2017-09-14T05:03:52.931Z,89.7
2017-09-14T05:04:52.482Z,90
2017-09-14T05:05:51.778Z,90.5
2017-09-14T05:06:51.075Z,90.5
2017-09-14T05:07:49.872Z,90.6
2017-09-14T05:08:49.041Z,90
2017-09-14T05:09:48.716Z,89.8
2017-09-14T05:10:47.760Z,89.8
2017-09-14T05:11:46.811Z,88.9
2017-09-14T05:12:46.238Z,88.5
2017-09-14T05:13:45.287Z,88.9
2017-09-14T05:14:44.843Z,89
2017-09-14T05:15:44.010Z,88.7
2017-09-14T05:16:42.803Z,89.1
2017-09-14T05:17:42.097Z,89.8
2017-09-14T05:18:41.525Z,89.6
2017-09-14T05:19:40.566Z,89.6
2017-09-14T05:20:39.987Z,89.7
2017-09-14T05:21:38.790Z,90
2017-09-14T05:22:38.337Z,90
2017-09-14T05:23:37.396Z,90.1
2017-09-14T05:24:07.754Z,90.1
2017-09-14T05:24:38.243Z,90.5
2017-09-14T05:25:08.604Z,90.5
2017-09-14T05:25:38.962Z,90.1
2017-09-14T05:26:35.371Z,90.1
2017-09-14T05:27:34.044Z,89.7
2017-09-14T05:28:33.475Z,89.7
2017-09-14T05:29:32.907Z,89.4
2017-09-14T05:30:31.707Z,89.6
2017-09-14T05:31:31.136Z,90
2017-09-14T05:32:30.187Z,90.2
2017-09-14T05:33:29.619Z,89.5
2017-09-14T05:34:28.919Z,89.4
2017-09-14T05:35:27.971Z,88.5
2017-09-14T05:36:27.024Z,89.1
2017-09-14T05:37:26.622Z,89
2017-09-14T05:38:25.672Z,88.7
2017-09-14T05:39:24.599Z,89.2
2017-09-14T05:40:23.898Z,89.6
2017-09-14T05:41:23.459Z,90.3
2017-09-14T05:42:22.504Z,90.6
2017-09-14T05:43:21.805Z,90.8
2017-09-14T05:44:20.729Z,91.1
2017-09-14T05:45:20.159Z,91.2
2017-09-14T05:46:19.456Z,90.7
2017-09-14T05:47:18.628Z,90.9
2017-09-14T05:48:17.440Z,91
2017-09-14T05:49:16.612Z,90.4
2017-09-14T05:50:16.034Z,90.4
2017-09-14T05:51:15.334Z,90.4
2017-09-14T05:52:14.633Z,89.9
2017-09-14T05:53:13.556Z,90.3
2017-09-14T05:54:12.862Z,89.7
2017-09-14T05:55:12.040Z,89.1
2017-09-14T05:56:11.458Z,89
2017-09-14T05:57:10.885Z,89.3
2017-09-14T05:58:09.551Z,89.6
2017-09-14T05:59:09.227Z,89.1
2017-09-14T06:00:08.395Z,89.5
2017-09-14T06:01:07.572Z,89.1
2017-09-14T06:02:06.497Z,89.5
2017-09-14T06:03:05.927Z,89.5
2017-09-14T06:04:05.225Z,89.4
2017-09-14T06:05:04.270Z,89.6
2017-09-14T06:05:34.758Z,89.6
2017-09-14T06:06:05.243Z,89.3
2017-09-14T06:06:35.602Z,89.3
2017-09-14T06:08:02.078Z,89.3
2017-09-14T06:09:01.121Z,89.1
2017-09-14T06:10:00.294Z,89.4
2017-09-14T06:10:59.719Z,89.5
2017-09-14T06:11:58.517Z,89.4
2017-09-14T06:12:57.819Z,89.3
2017-09-14T06:13:57.115Z,88.9
2017-09-14T06:14:56.172Z,88.8
2017-09-14T06:15:55.472Z,88.9
2017-09-14T06:16:54.524Z,89
2017-09-14T06:17:53.980Z,88.9
2017-09-14T06:18:53.147Z,88.9
2017-09-14T06:19:52.570Z,89.1
2017-09-14T06:20:51.613Z,89.1
2017-09-14T06:21:50.661Z,88.8
2017-09-14T06:22:50.085Z,88.4
2017-09-14T06:23:49.382Z,88.4
2017-09-14T06:24:48.314Z,88.3
2017-09-14T06:25:47.615Z,88.6
2017-09-14T06:26:47.047Z,88.5
2017-09-14T06:27:45.970Z,88.9
2017-09-14T06:28:45.522Z,88.3
2017-09-14T06:29:44.441Z,88.9
2017-09-14T06:30:43.736Z,88.6
2017-09-14T06:31:43.284Z,88.8
2017-09-14T06:32:42.205Z,88.9
2017-09-14T06:33:41.628Z,88.4
2017-09-14T06:34:40.550Z,88.5
2017-09-14T06:35:39.852Z,88.2
2017-09-14T06:36:39.185Z,88.4
2017-09-14T06:37:38.109Z,88.7
2017-09-14T06:38:37.157Z,89
2017-09-14T06:39:36.958Z,88.8
2017-09-14T06:40:35.749Z,88.5
2017-09-14T06:41:35.205Z,88.5
2017-09-14T06:42:34.386Z,88.4
2017-09-14T06:43:33.812Z,88.6
2017-09-14T06:44:32.742Z,88.6
2017-09-14T06:45:32.165Z,88.5
2017-09-14T06:46:31.083Z,88.8
2017-09-14T06:47:30.133Z,88.1
2017-09-14T06:48:29.813Z,88.1
2017-09-14T06:49:28.504Z,89
2017-09-14T06:50:27.925Z,87.7
2017-09-14T06:51:27.225Z,87.3
2017-09-14T06:53:25.531Z,87.9
2017-09-14T06:54:24.827Z,87.8
2017-09-14T06:55:24.253Z,87.6
2017-09-14T06:56:23.424Z,87.3
2017-09-14T06:57:22.589Z,86
2017-09-14T06:58:21.890Z,85.3
2017-09-14T06:59:20.939Z,84.8
2017-09-14T07:00:20.369Z,84.9
2017-09-14T07:01:19.422Z,85.5
2017-09-14T07:02:18.595Z,86
2017-09-14T07:04:16.901Z,86
2017-09-14T07:05:16.453Z,85.3
2017-09-14T07:06:15.501Z,85.3
2017-09-14T07:07:14.924Z,85.2
2017-09-14T07:09:13.236Z,85.4
2017-09-14T07:11:11.298Z,84.8
2017-09-14T07:13:09.990Z,84
2017-09-14T07:15:08.295Z,84.5
2017-09-14T07:16:07.726Z,83.5
2017-09-14T07:17:07.025Z,83
2017-09-14T07:18:06.077Z,83.5
2017-09-14T07:19:05.257Z,83.4
2017-09-14T07:20:04.306Z,83.3
2017-09-14T07:21:03.613Z,83.5
2017-09-14T07:22:03.039Z,83
2017-09-14T07:23:01.968Z,83.1
2017-09-14T07:24:01.528Z,82.8
2017-09-14T07:25:59.709Z,83.5
2017-09-14T07:26:58.907Z,82.9
2017-09-14T07:27:58.452Z,82.5
2017-09-14T07:28:57.657Z,82.2
2017-09-14T07:29:56.706Z,82.6
2017-09-14T07:30:55.882Z,81.5
2017-09-14T07:31:55.316Z,82.8
2017-09-14T07:32:54.490Z,82.9
2017-09-14T07:33:53.534Z,81.1
2017-09-14T07:34:52.834Z,81.3
2017-09-14T07:35:52.000Z,81
2017-09-14T07:36:51.423Z,81.3
2017-09-14T07:37:50.469Z,81.6
2017-09-14T07:38:49.398Z,80.8
2017-09-14T07:39:48.833Z,80
2017-09-14T07:40:47.908Z,79.7
2017-09-14T07:41:47.336Z,78.3
2017-09-14T07:42:46.673Z,78.7
2017-09-14T07:43:45.971Z,77.5
2017-09-14T07:44:44.764Z,76.8
2017-09-14T07:45:44.062Z,77.9
2017-09-14T07:46:43.234Z,78
2017-09-14T07:47:42.529Z,77.2
2017-09-14T07:48:41.956Z,76.6
2017-09-14T07:49:41.132Z,75.1
2017-09-14T07:50:40.572Z,75.2
2017-09-14T07:51:39.488Z,75.6
2017-09-14T07:52:38.530Z,75.2
2017-09-14T07:53:37.958Z,76.1
2017-09-14T07:54:36.886Z,76.7
2017-09-14T07:55:36.182Z,76.5
2017-09-14T07:56:35.479Z,75.3
2017-09-14T07:57:34.904Z,76.2
2017-09-14T07:58:05.176Z,76.2
2017-09-14T07:58:35.284Z,74.6
2017-09-14T07:59:33.455Z,76.5
2017-09-14T08:00:32.626Z,75
2017-09-14T08:01:31.424Z,75.1
2017-09-14T08:03:30.357Z,75.1
2017-09-14T08:04:29.538Z,75.3
2017-09-14T08:05:28.585Z,75.5
2017-09-14T08:06:27.888Z,76
2017-09-14T08:07:26.803Z,75.4
2017-09-14T08:08:26.358Z,75.8
2017-09-14T08:09:25.799Z,76.1
2017-09-14T08:10:24.597Z,75
2017-09-14T08:11:24.151Z,73.8
2017-09-14T08:12:22.966Z,74.7
2017-09-14T08:13:22.514Z,74.9
2017-09-14T08:14:21.686Z,75.4
2017-09-14T08:15:21.116Z,76.4
2017-09-14T08:16:20.040Z,75.7
2017-09-14T08:17:19.210Z,75.5
2017-09-14T08:18:18.391Z,76.6
2017-09-14T08:19:17.813Z,75.5
2017-09-14T08:20:16.862Z,77.5
2017-09-14T08:21:16.161Z,76.2
2017-09-14T08:22:15.598Z,75.2
2017-09-14T08:23:14.899Z,75.4
2017-09-14T08:24:13.945Z,73.7
2017-09-14T08:25:13.247Z,74.4
2017-09-14T08:26:12.670Z,73.9
2017-09-14T08:27:11.346Z,73.2
2017-09-14T08:28:10.909Z,73.5
2017-09-14T08:29:10.200Z,73.7
2017-09-14T08:30:09.248Z,74.4
2017-09-14T08:31:08.443Z,73.1
2017-09-14T08:32:07.744Z,73.3
2017-09-14T08:33:07.305Z,73.5
2017-09-14T08:34:06.469Z,74.2
2017-09-14T08:35:05.640Z,73.3
2017-09-14T08:36:04.699Z,74
2017-09-14T08:37:03.869Z,73
2017-09-14T08:39:02.376Z,71.9
2017-09-14T08:40:01.822Z,71.4
2017-09-14T08:41:01.001Z,71.9
2017-09-14T08:41:59.921Z,72.3
2017-09-14T08:42:59.355Z,72.6
2017-09-14T08:43:58.783Z,72.3
2017-09-14T08:44:58.080Z,72.7
2017-09-14T08:45:57.000Z,72.8
2017-09-14T08:46:56.423Z,72.7
2017-09-14T08:48:54.850Z,73.2
2017-09-14T08:50:53.286Z,71.6
2017-09-14T08:52:51.464Z,73.5
2017-09-14T08:53:50.893Z,74.2
2017-09-14T08:54:50.196Z,73.3
2017-09-14T08:55:49.251Z,71.9
2017-09-14T08:56:48.794Z,72.1
2017-09-14T08:57:47.841Z,72.7
2017-09-14T08:58:46.883Z,72.8
2017-09-14T08:59:46.432Z,72.8
2017-09-14T09:00:45.481Z,73
2017-09-14T09:01:44.779Z,73.5
2017-09-14T09:03:43.101Z,73.3
2017-09-14T09:04:42.653Z,72.5
2017-09-14T09:05:41.953Z,72.8
2017-09-14T09:06:41.006Z,71.9
2017-09-14T09:08:39.698Z,72.1
2017-09-14T09:09:38.617Z,71.3
2017-09-14T09:10:37.792Z,72
2017-09-14T09:11:37.089Z,72.2
2017-09-14T09:12:36.026Z,71.3
2017-09-14T09:14:34.595Z,72.3
2017-09-14T09:15:33.761Z,72.1
2017-09-14T09:16:33.312Z,72.1
2017-09-14T09:17:32.608Z,73
2017-09-14T09:18:32.030Z,73
2017-09-14T09:19:30.831Z,73
2017-09-14T09:20:30.262Z,72.3
2017-09-14T09:21:29.314Z,73
2017-09-14T09:22:28.616Z,73.1
2017-09-14T09:23:27.790Z,73.5
2017-09-14T09:23:58.528Z,73.5
2017-09-14T09:25:26.258Z,72.6
2017-09-14T09:26:25.840Z,72.1
2017-09-14T09:27:25.013Z,71.5
2017-09-14T09:28:24.059Z,71.9
2017-09-14T09:29:23.485Z,72.1
2017-09-14T09:30:22.398Z,72.1
2017-09-14T09:31:21.949Z,72.2
2017-09-14T09:32:20.866Z,71.8
2017-09-14T09:33:20.428Z,71.6
2017-09-14T09:33:51.042Z,71.6
2017-09-14T09:34:21.273Z,71.9
2017-09-14T09:34:51.507Z,71.9
2017-09-14T09:35:21.616Z,72.5
2017-09-14T09:35:51.976Z,72.5
2017-09-14T09:37:17.069Z,71.7
2017-09-14T09:38:16.244Z,72.2
2017-09-14T09:39:15.543Z,72.1
2017-09-14T09:40:14.836Z,72.8
2017-09-14T09:41:14.131Z,72.4
2017-09-14T09:42:13.681Z,72.1
2017-09-14T09:43:12.485Z,71.8
2017-09-14T09:44:12.036Z,72.3
2017-09-14T09:45:11.267Z,73
2017-09-14T09:46:10.188Z,71.7
2017-09-14T09:47:09.747Z,71.6
2017-09-14T09:48:08.804Z,73.1
2017-09-14T09:49:08.102Z,72.2
2017-09-14T09:50:07.149Z,72.2
2017-09-14T09:51:06.721Z,71.9
2017-09-14T09:52:06.027Z,72.8
2017-09-14T09:53:04.694Z,71.8
2017-09-14T09:54:04.242Z,73.1
2017-09-14T09:55:03.418Z,73
2017-09-14T09:56:02.969Z,72.9
2017-09-14T09:57:02.020Z,73.3
2017-09-14T09:58:01.450Z,72.9
2017-09-14T09:59:00.622Z,73.6
2017-09-14T09:59:59.541Z,74
2017-09-14T10:00:58.840Z,73.6
2017-09-14T10:01:58.138Z,74.4
2017-09-14T10:02:57.434Z,74.3
2017-09-14T10:03:56.748Z,76.5
2017-09-14T10:04:55.669Z,76
2017-09-14T10:05:26.278Z,76
2017-09-14T10:05:56.507Z,76.9
2017-09-14T10:06:26.995Z,76.9
2017-09-14T10:06:57.098Z,77.2
2017-09-14T10:07:27.737Z,77.2
2017-09-14T10:07:58.350Z,77.6
2017-09-14T10:08:53.124Z,77.6
2017-09-14T10:09:51.802Z,78.4
2017-09-14T10:10:51.353Z,78.2
2017-09-14T10:11:50.679Z,77.8
2017-09-14T10:12:49.863Z,78.6
2017-09-14T10:13:48.800Z,78.4
2017-09-14T10:14:47.976Z,78
2017-09-14T10:15:47.279Z,78
2017-09-14T10:16:18.018Z,78
2017-09-14T10:16:48.384Z,78.6
2017-09-14T10:17:18.625Z,78.6
2017-09-14T10:17:48.988Z,77.9
2017-09-14T10:18:19.611Z,77.9
2017-09-14T10:19:44.520Z,77.8
2017-09-14T10:20:43.457Z,78.4
2017-09-14T10:21:42.889Z,77.7
2017-09-14T10:22:42.066Z,78.3
2017-09-14T10:23:41.497Z,77.9
2017-09-14T10:25:39.806Z,77.7
2017-09-14T10:26:39.235Z,79.5
2017-09-14T10:27:38.421Z,78.1
2017-09-14T10:28:37.339Z,79.3
2017-09-14T10:29:36.518Z,79.1
2017-09-14T10:30:35.816Z,79.6
2017-09-14T10:31:35.241Z,79.6
2017-09-14T10:32:34.425Z,79.8
2017-09-14T10:33:33.722Z,80.4
2017-09-14T10:34:33.022Z,80.1
2017-09-14T10:35:31.822Z,79.9
2017-09-14T10:36:31.450Z,79.1
2017-09-14T10:37:30.496Z,79
2017-09-14T10:38:29.678Z,79.6
2017-09-14T10:39:29.224Z,79.5
2017-09-14T10:40:28.274Z,78.8
2017-09-14T10:41:27.464Z,79.6
2017-09-14T10:42:26.766Z,80.5
2017-09-14T10:43:26.065Z,80.3
2017-09-14T10:44:25.363Z,80.5
2017-09-14T10:45:24.291Z,81.3
2017-09-14T10:46:23.717Z,82
2017-09-14T10:47:22.769Z,81.1
2017-09-14T10:48:22.196Z,81.5
2017-09-14T10:49:21.287Z,81.4
2017-09-14T10:50:20.330Z,81.8
2017-09-14T10:51:19.520Z,82.4
2017-09-14T10:52:18.949Z,83.3
2017-09-14T10:53:18.250Z,82.7
2017-09-14T10:54:17.438Z,83
2017-09-14T10:55:16.869Z,82.6
2017-09-14T10:56:16.041Z,83.3
2017-09-14T10:57:15.215Z,83.2
2017-09-14T10:57:45.576Z,83.2
2017-09-14T10:59:13.814Z,83.4
2017-09-14T11:00:12.610Z,84.6
2017-09-14T11:01:12.286Z,83.5
2017-09-14T11:02:11.087Z,84
2017-09-14T11:03:10.513Z,84.4
2017-09-14T11:04:09.816Z,83.8
2017-09-14T11:05:08.868Z,84.3
2017-09-14T11:06:08.462Z,84.4
2017-09-14T11:07:07.637Z,84.3
2017-09-14T11:08:06.303Z,84.9
2017-09-14T11:08:36.669Z,84.9
2017-09-14T11:09:06.778Z,84.9
2017-09-14T11:10:04.945Z,85.1
2017-09-14T11:11:04.489Z,85.4
2017-09-14T11:12:03.543Z,85.6
2017-09-14T11:14:02.231Z,86.5
2017-09-14T11:15:01.282Z,86.7
2017-09-14T11:16:00.459Z,86.7
2017-09-14T11:16:59.883Z,85.5
2017-09-14T11:17:58.710Z,86.7
2017-09-14T11:18:58.004Z,86.6
2017-09-14T11:19:57.428Z,87.5
2017-09-14T11:20:56.473Z,86.7
2017-09-14T11:21:55.776Z,87
2017-09-14T11:22:54.694Z,87.2
2017-09-14T11:23:54.120Z,87.7
2017-09-14T11:24:53.421Z,86.9
2017-09-14T11:25:52.430Z,88.2
2017-09-14T11:26:51.722Z,87.7
2017-09-14T11:27:50.893Z,87.8
2017-09-14T11:28:49.937Z,87.4
2017-09-14T11:29:49.363Z,87.6
2017-09-14T11:30:48.672Z,88.3
2017-09-14T11:31:48.093Z,87.3
2017-09-14T11:32:47.137Z,87.5
2017-09-14T11:33:46.190Z,88.3
2017-09-14T11:34:45.497Z,88.6
2017-09-14T11:35:44.669Z,87.9
2017-09-14T11:36:43.631Z,88.5
2017-09-14T11:37:42.927Z,88.7
2017-09-14T11:38:42.230Z,90
2017-09-14T11:39:41.279Z,89.1
2017-09-14T11:40:40.592Z,89.1
2017-09-14T11:41:39.894Z,89.5
2017-09-14T11:42:39.194Z,89.2
2017-09-14T11:43:09.438Z,89.2
2017-09-14T11:43:39.791Z,88.9
2017-09-14T11:44:37.586Z,89.8
2017-09-14T11:45:36.632Z,88.6
2017-09-14T11:46:35.928Z,88.8
2017-09-14T11:47:35.232Z,89.2
2017-09-14T11:48:34.283Z,88.2
2017-09-14T11:49:33.700Z,88.9
2017-09-14T11:50:33.003Z,89.1
2017-09-14T11:51:32.051Z,89.6
2017-09-14T11:52:31.229Z,89.4
2017-09-14T11:53:30.525Z,89.2
2017-09-14T11:54:00.775Z,89.2
2017-09-14T11:54:31.031Z,89.2
2017-09-14T11:55:01.514Z,89.2
2017-09-14T11:55:31.878Z,88.5
2017-09-14T11:56:02.367Z,88.5
2017-09-14T11:56:32.856Z,87.5
2017-09-14T11:57:03.228Z,87.5
2017-09-14T11:58:26.303Z,87.9
2017-09-14T11:59:25.599Z,87.7
2017-09-14T12:00:24.906Z,88
2017-09-14T12:01:24.200Z,87.9
2017-09-14T12:02:23.252Z,87.8
2017-09-14T12:03:22.429Z,87.8
2017-09-14T12:04:21.980Z,87.9
2017-09-14T12:05:21.156Z,87.5
2017-09-14T12:06:20.202Z,88.5
2017-09-14T12:07:19.630Z,87.8
2017-09-14T12:08:18.426Z,88.5
2017-09-14T12:09:17.612Z,87.1
2017-09-14T12:11:16.048Z,87.2
2017-09-14T12:12:15.347Z,86.6
2017-09-14T12:13:14.773Z,86.9
2017-09-14T12:14:13.951Z,86
2017-09-14T12:15:13.133Z,84.3
2017-09-14T12:17:11.689Z,85.2
2017-09-14T12:18:10.864Z,85.5
2017-09-14T12:19:09.788Z,84.9
2017-09-14T12:20:09.215Z,85
2017-09-14T12:21:08.390Z,85.6
2017-09-14T12:22:07.317Z,85.3
2017-09-14T12:23:06.617Z,85.7
2017-09-14T12:25:04.922Z,85.9
2017-09-14T12:26:04.226Z,85.7
2017-09-14T12:27:03.678Z,84.2
2017-09-14T12:28:02.600Z,84.2
2017-09-14T12:29:01.901Z,83.2
2017-09-14T12:30:01.078Z,82.7
2017-09-14T12:31:00.632Z,84
2017-09-14T12:31:59.805Z,82.3
2017-09-14T12:32:58.908Z,82.9
2017-09-14T12:33:58.207Z,81.8
2017-09-14T12:34:57.502Z,81.5
2017-09-14T12:35:27.740Z,81.5
2017-09-14T12:35:58.228Z,81.5
2017-09-14T12:36:28.485Z,81.5
2017-09-14T12:36:58.974Z,82.3
2017-09-14T12:37:29.585Z,82.3
2017-09-14T12:38:54.174Z,82.6
2017-09-14T12:39:53.474Z,81.7
2017-09-14T12:40:52.268Z,80.9
2017-09-14T12:41:51.691Z,80.9
2017-09-14T12:42:50.991Z,81
2017-09-14T12:43:50.281Z,81
2017-09-14T12:44:49.110Z,80.5
2017-09-14T12:45:48.658Z,80.3
2017-09-14T12:46:18.771Z,80.3
2017-09-14T12:46:49.249Z,80.9
2017-09-14T12:47:19.870Z,80.9
2017-09-14T12:48:46.094Z,80.5
2017-09-14T12:49:45.525Z,80
2017-09-14T12:51:43.973Z,78.1
2017-09-14T12:52:42.901Z,79.4
2017-09-14T12:53:42.458Z,77.8
2017-09-14T12:54:41.753Z,78.9
2017-09-14T12:55:40.676Z,77.8
2017-09-14T12:56:40.099Z,77.7
2017-09-14T12:58:38.032Z,77
2017-09-14T12:59:37.594Z,77.1
2017-09-14T13:00:36.774Z,77.3
2017-09-14T13:02:35.081Z,77.3
2017-09-14T13:03:34.500Z,76.5
2017-09-14T13:04:33.424Z,75.9
2017-09-14T13:05:32.982Z,76.3
2017-09-14T13:06:32.154Z,76.6
2017-09-14T13:07:31.075Z,76.3
2017-09-14T13:08:30.520Z,75.7
2017-09-14T13:09:29.829Z,76.1
2017-09-14T13:10:28.874Z,76.4
2017-09-14T13:11:28.424Z,75.4
2017-09-14T13:13:26.735Z,74.4
2017-09-14T13:14:25.912Z,73.6
2017-09-14T13:15:24.831Z,74.4
2017-09-14T13:16:24.384Z,74.7
2017-09-14T13:17:23.306Z,74.4
2017-09-14T13:18:22.738Z,73.6
2017-09-14T13:19:22.036Z,73.2
2017-09-14T13:20:21.346Z,76.1
2017-09-14T13:21:20.272Z,73.2
2017-09-14T13:22:19.572Z,72
2017-09-14T13:24:17.751Z,72.4
2017-09-14T13:25:17.069Z,71.8
2017-09-14T13:26:16.499Z,72.8